createdAt,value
2023-05-29T00:00:26.394Z,6.900
2023-05-29T00:01:28.537Z,6.199
2023-05-29T00:02:25.727Z,6.5
2023-05-29T00:04:25.345Z,6.599
2023-05-29T00:05:25.464Z,6.699
2023-05-29T00:06:25.104Z,6.5
2023-05-29T00:07:25.213Z,8.300
2023-05-29T00:08:24.790Z,7.800
2023-05-29T00:09:25.092Z,7.199
2023-05-29T00:10:25.345Z,6.900
2023-05-29T00:11:25.312Z,6.699
2023-05-29T00:13:25.456Z,7
2023-05-29T00:14:25.470Z,6
2023-05-29T00:15:25.904Z,6.300
2023-05-29T00:16:25.108Z,6.099
2023-05-29T00:17:25.137Z,6.5
2023-05-29T00:18:25.034Z,6.800
2023-05-29T00:19:24.732Z,6.699
2023-05-29T00:20:26.005Z,5.900
2023-05-29T00:21:25.017Z,6.900
2023-05-29T00:22:24.932Z,6.300
2023-05-29T00:23:25.086Z,7
2023-05-29T00:24:25.172Z,6.599
2023-05-29T00:25:25.241Z,6.300
2023-05-29T00:26:24.788Z,6.800
2023-05-29T00:27:24.852Z,6.699
2023-05-29T00:29:25.056Z,6.199
2023-05-29T00:30:25.050Z,7.199
2023-05-29T00:31:24.949Z,7
2023-05-29T00:32:24.941Z,7.800
2023-05-29T00:33:24.986Z,7.400
2023-05-29T00:34:25.032Z,7.300
2023-05-29T00:35:25.025Z,6.5
2023-05-29T00:36:25.226Z,7
2023-05-29T00:37:25.254Z,6.5
2023-05-29T00:38:25.201Z,8.100
2023-05-29T00:39:24.982Z,7.199
2023-05-29T00:40:24.994Z,6.199
2023-05-29T00:42:25.185Z,7
2023-05-29T00:43:24.745Z,7.699
2023-05-29T00:44:25.509Z,6.900
2023-05-29T00:45:25.650Z,6.800
2023-05-29T00:46:25.535Z,8.300
2023-05-29T00:47:25.597Z,8
2023-05-29T00:48:25.348Z,6.900
2023-05-29T00:49:25.088Z,7.800
2023-05-29T00:50:24.916Z,7.699
2023-05-29T00:51:24.889Z,8.300
2023-05-29T00:52:25.537Z,8.399
2023-05-29T00:53:25.218Z,8.899
2023-05-29T00:54:24.752Z,7.800
2023-05-29T00:55:25.419Z,7.099
2023-05-29T00:56:25.247Z,8.600
2023-05-29T00:57:25.020Z,8.800
2023-05-29T00:59:25.689Z,8.699
2023-05-29T01:00:34.733Z,8.300
2023-05-29T01:01:25.857Z,9.699
2023-05-29T01:02:25.018Z,6.900
2023-05-29T01:03:25.205Z,7.699
2023-05-29T01:04:24.936Z,8.699
2023-05-29T01:05:24.988Z,7.599
2023-05-29T01:06:24.974Z,8.5
2023-05-29T01:07:25.142Z,7.5
2023-05-29T01:08:25.109Z,8.899
2023-05-29T01:09:25.292Z,8.199
2023-05-29T01:10:24.934Z,8.5
2023-05-29T01:11:24.922Z,7.400
2023-05-29T01:12:25.266Z,7.699
2023-05-29T01:13:24.908Z,8
2023-05-29T01:14:25.712Z,7.5
2023-05-29T01:15:26.060Z,7.599
2023-05-29T01:16:25.029Z,7.400
2023-05-29T01:17:25.233Z,7.199
2023-05-29T01:18:25.044Z,8.5
2023-05-29T01:19:24.729Z,5.800
2023-05-29T01:20:25.175Z,7.099
2023-05-29T01:21:25.304Z,8
2023-05-29T01:22:25.312Z,7.900
2023-05-29T01:23:24.857Z,6.699
2023-05-29T01:24:25.408Z,7.199
2023-05-29T01:25:25.343Z,7.099
2023-05-29T01:26:25.130Z,7.900
2023-05-29T01:27:24.906Z,7.599
2023-05-29T01:28:25.396Z,7.099
2023-05-29T01:29:25.126Z,7.199
2023-05-29T01:30:25.464Z,7.400
2023-05-29T01:31:25.013Z,6.900
2023-05-29T01:32:24.968Z,7.099
2023-05-29T01:33:25.108Z,7.800
2023-05-29T01:34:24.869Z,8.100
2023-05-29T01:35:25.139Z,6.300
2023-05-29T01:36:24.965Z,9
2023-05-29T01:37:24.956Z,7.900
2023-05-29T01:38:24.893Z,6.800
2023-05-29T01:39:25.703Z,7.300
2023-05-29T01:40:25.669Z,8.100
2023-05-29T01:41:25.436Z,6.300
2023-05-29T01:42:25.433Z,7.5
2023-05-29T01:43:25.158Z,7.599
2023-05-29T01:44:24.969Z,6.599
2023-05-29T01:45:25.334Z,7.300
2023-05-29T01:46:25.129Z,8
2023-05-29T01:47:25.220Z,6.800
2023-05-29T01:48:24.976Z,8.300
2023-05-29T01:49:25.809Z,8
2023-05-29T01:50:25.531Z,7.800
2023-05-29T01:51:25.371Z,7.400
2023-05-29T01:52:25.026Z,9.399
2023-05-29T01:53:25.066Z,8
2023-05-29T01:54:25.034Z,6.900
2023-05-29T01:55:24.919Z,5.900
2023-05-29T01:56:25.772Z,6.800
2023-05-29T01:57:25.577Z,5.5
2023-05-29T01:58:25.327Z,7
2023-05-29T01:59:25.178Z,8
2023-05-29T02:00:26.260Z,6.5
2023-05-29T02:01:25.798Z,7.199
2023-05-29T02:02:26.250Z,6.5
2023-05-29T02:03:26.121Z,6.400
2023-05-29T02:04:25.953Z,6.599
2023-05-29T02:05:25.287Z,8.199
2023-05-29T02:06:25.449Z,6.900
2023-05-29T02:07:25.306Z,8.699
2023-05-29T02:08:25.287Z,8.399
2023-05-29T02:09:25.185Z,7.400
2023-05-29T02:10:25.350Z,7.699
2023-05-29T02:11:25.109Z,9.600
2023-05-29T02:12:25.136Z,7.300
2023-05-29T02:13:25.113Z,7.099
2023-05-29T02:14:24.861Z,6.699
2023-05-29T02:15:24.968Z,7.599
2023-05-29T02:16:25.076Z,7.5
2023-05-29T02:17:25.216Z,7.900
2023-05-29T02:18:25.047Z,7.800
2023-05-29T02:19:24.683Z,7.5
2023-05-29T02:20:25.040Z,7.199
2023-05-29T02:21:24.896Z,7
2023-05-29T02:22:24.843Z,8.399
2023-05-29T02:23:24.908Z,9.399
2023-05-29T02:24:25.067Z,8.5
2023-05-29T02:25:24.966Z,7.699
2023-05-29T02:26:25.005Z,9.600
2023-05-29T02:27:25.067Z,9
2023-05-29T02:28:25.189Z,7.099
2023-05-29T02:29:24.913Z,7.599
2023-05-29T02:30:25.594Z,6.699
2023-05-29T02:31:25.953Z,6.400
2023-05-29T02:32:25.516Z,8.300
2023-05-29T02:33:25.789Z,7.699
2023-05-29T02:34:24.934Z,6.599
2023-05-29T02:35:25.316Z,8.300
2023-05-29T02:36:25.262Z,8
2023-05-29T02:37:25.189Z,6.400
2023-05-29T02:38:25.247Z,6.900
2023-05-29T02:39:24.990Z,7.5
2023-05-29T02:40:24.949Z,7.699
2023-05-29T02:41:25.285Z,7
2023-05-29T02:42:25.238Z,5.599
2023-05-29T02:43:24.894Z,5.800
2023-05-29T02:44:25.379Z,6.800
2023-05-29T02:45:25.731Z,7.099
2023-05-29T02:47:25.012Z,5.800
2023-05-29T02:48:25.031Z,7.300
2023-05-29T02:49:24.829Z,6.099
2023-05-29T02:50:25.042Z,6.300
2023-05-29T02:51:25.120Z,7.400
2023-05-29T02:52:25.251Z,8.300
2023-05-29T02:53:24.975Z,6
2023-05-29T02:54:25.112Z,6.300
2023-05-29T02:55:25.533Z,5.800
2023-05-29T02:56:25.562Z,5.599
2023-05-29T02:57:25.538Z,6.599
2023-05-29T02:58:25.803Z,5.800
2023-05-29T02:59:24.704Z,7.300
2023-05-29T03:00:26.031Z,7.800
2023-05-29T03:01:25.031Z,6.900
2023-05-29T03:02:25.339Z,7.599
2023-05-29T03:03:25.612Z,6.199
2023-05-29T03:04:24.838Z,5.900
2023-05-29T03:05:25.803Z,7.699
2023-05-29T03:06:25.786Z,6.199
2023-05-29T03:07:25.530Z,5.5
2023-05-29T03:08:25.132Z,5
2023-05-29T03:09:24.978Z,6.400
2023-05-29T03:10:25.532Z,6.5
2023-05-29T03:11:25.508Z,7.400
2023-05-29T03:12:25.581Z,5.599
2023-05-29T03:13:25.277Z,5
2023-05-29T03:14:25.035Z,5.5
2023-05-29T03:15:25.405Z,6.900
2023-05-29T03:16:25.171Z,8.100
2023-05-29T03:17:25.202Z,5.400
2023-05-29T03:18:25.443Z,5.800
2023-05-29T03:19:25.189Z,6.699
2023-05-29T03:20:25.749Z,7.199
2023-05-29T03:21:24.950Z,6.400
2023-05-29T03:22:24.913Z,5.099
2023-05-29T03:23:27.453Z,7
2023-05-29T03:24:25.454Z,8.100
2023-05-29T03:25:25.447Z,7.5
2023-05-29T03:26:25.080Z,6.400
2023-05-29T03:27:25.231Z,6.5
2023-05-29T03:28:25.160Z,6
2023-05-29T03:29:25.212Z,5.599
2023-05-29T03:30:25.828Z,6
2023-05-29T03:31:25.471Z,6.599
2023-05-29T03:32:25.780Z,4.900
2023-05-29T03:33:25.300Z,6.199
2023-05-29T03:34:25.393Z,6.599
2023-05-29T03:35:25.552Z,6.199
2023-05-29T03:36:25.763Z,5.5
2023-05-29T03:37:25.985Z,5.300
2023-05-29T03:38:25.168Z,7.199
2023-05-29T03:39:25.204Z,7.5
2023-05-29T03:40:25.463Z,6.599
2023-05-29T03:41:25.245Z,7.400
2023-05-29T03:42:25.224Z,7
2023-05-29T03:43:25.156Z,6.199
2023-05-29T03:44:25.177Z,5.400
2023-05-29T03:45:25.618Z,5.300
2023-05-29T03:46:25.809Z,6.400
2023-05-29T03:47:25.783Z,6.699
2023-05-29T03:48:25.304Z,6.800
2023-05-29T03:49:25.161Z,5.800
2023-05-29T03:50:25.321Z,5.5
2023-05-29T03:51:25.202Z,6
2023-05-29T03:52:25.477Z,5.900
2023-05-29T03:53:25.601Z,6.099
2023-05-29T03:54:25.116Z,5.400
2023-05-29T03:55:25.405Z,7.099
2023-05-29T03:56:25.503Z,5.800
2023-05-29T03:57:25.539Z,5.900
2023-05-29T03:58:25.335Z,6.099
2023-05-29T04:00:26.729Z,6.5
2023-05-29T04:01:25.124Z,6.699
2023-05-29T04:02:25.565Z,5.699
2023-05-29T04:03:25.223Z,6.199
2023-05-29T04:04:25.232Z,5.699
2023-05-29T04:05:25.626Z,6.900
2023-05-29T04:06:24.988Z,6.5
2023-05-29T04:07:25.076Z,6.400
2023-05-29T04:09:25.265Z,6.599
2023-05-29T04:10:25.747Z,5.699
2023-05-29T04:11:25.488Z,6.199
2023-05-29T04:12:25.908Z,5.900
2023-05-29T04:13:24.776Z,6.900
2023-05-29T04:14:25.765Z,6
2023-05-29T04:15:25.580Z,6.5
2023-05-29T04:16:25.849Z,5.699
2023-05-29T04:18:25.820Z,5.099
2023-05-29T04:19:25.859Z,7.300
2023-05-29T04:20:25.193Z,7.5
2023-05-29T04:21:25.180Z,5.900
2023-05-29T04:22:25.238Z,4.900
2023-05-29T04:23:25.579Z,6
2023-05-29T04:24:25.826Z,6.800
2023-05-29T04:25:25.434Z,7
2023-05-29T04:26:25.289Z,6.400
2023-05-29T04:27:25.501Z,5.699
2023-05-29T04:28:25.645Z,6.400
2023-05-29T04:29:25.793Z,6.5
2023-05-29T04:30:26.155Z,6.599
2023-05-29T04:31:25.548Z,5.800
2023-05-29T04:32:26.144Z,6.300
2023-05-29T04:33:25.127Z,8
2023-05-29T04:34:24.882Z,6.199
2023-05-29T04:35:25.210Z,6.400
2023-05-29T04:36:25.242Z,6
2023-05-29T04:37:25.296Z,6.199
2023-05-29T04:38:25.487Z,7.5
2023-05-29T04:39:25.858Z,5.599
2023-05-29T04:40:25.420Z,8
2023-05-29T04:41:25.643Z,6.300
2023-05-29T04:42:25.972Z,7.599
2023-05-29T04:43:25.521Z,7.199
2023-05-29T04:44:25.796Z,7
2023-05-29T04:45:25.542Z,7.300
2023-05-29T04:46:25.916Z,7.900
2023-05-29T04:47:25.704Z,7.099
2023-05-29T04:48:25.861Z,6.800
2023-05-29T04:49:25.137Z,8.199
2023-05-29T04:50:25.395Z,8
2023-05-29T04:51:25.939Z,7.199
2023-05-29T04:52:25.401Z,6.300
2023-05-29T04:53:25.694Z,7.699
2023-05-29T04:54:26.061Z,6.599
2023-05-29T04:55:25.299Z,8.399
2023-05-29T04:56:25.317Z,8.199
2023-05-29T04:57:25.777Z,7.400
2023-05-29T04:58:25.725Z,5.800
2023-05-29T04:59:25.945Z,6.800
2023-05-29T05:00:26.079Z,7.300
2023-05-29T05:01:25.527Z,5.900
2023-05-29T05:02:26.254Z,6.699
2023-05-29T05:03:25.616Z,6.599
2023-05-29T05:04:26.247Z,6.099
2023-05-29T05:05:25.798Z,6.300
2023-05-29T05:06:25.246Z,6.800
2023-05-29T05:08:25.511Z,7.400
2023-05-29T05:09:25.988Z,8.899
2023-05-29T05:10:25.776Z,7.800
2023-05-29T05:11:24.860Z,7.599
2023-05-29T05:13:25.212Z,6.400
2023-05-29T05:14:25.579Z,6.5
2023-05-29T05:15:26.178Z,7.5
2023-05-29T05:16:25.874Z,8.699
2023-05-29T05:17:25.410Z,6.199
2023-05-29T05:18:25.572Z,6.599
2023-05-29T05:19:26.130Z,6.300
2023-05-29T05:20:25.603Z,5.800
2023-05-29T05:21:25.132Z,6.599
2023-05-29T05:22:25.577Z,5.199
2023-05-29T05:23:25.495Z,6.699
2023-05-29T05:24:25.745Z,7.300
2023-05-29T05:25:25.020Z,6.5
2023-05-29T05:26:25.572Z,7.099
2023-05-29T05:27:25.972Z,7.199
2023-05-29T05:28:24.958Z,9.399
2023-05-29T05:29:26.354Z,7.400
2023-05-29T05:30:25.818Z,7.5
2023-05-29T05:31:24.991Z,7
2023-05-29T05:32:25.600Z,7.5
2023-05-29T05:33:26.089Z,7.300
2023-05-29T05:34:25.460Z,6.400
2023-05-29T05:35:25.950Z,6.5
2023-05-29T05:36:25.398Z,8.300
2023-05-29T05:37:25.517Z,8.699
2023-05-29T05:38:25.364Z,9
2023-05-29T05:39:26.001Z,6.900
2023-05-29T05:40:25.496Z,8
2023-05-29T05:41:25.873Z,6.099
2023-05-29T05:42:25.307Z,8.199
2023-05-29T05:43:25.990Z,7.699
2023-05-29T05:44:25.944Z,7
2023-05-29T05:45:26.494Z,7.5
2023-05-29T05:46:27.532Z,7.599
2023-05-29T05:47:25.629Z,7.800
2023-05-29T05:48:24.970Z,8.399
2023-05-29T05:49:25.465Z,6.800
2023-05-29T05:50:25.565Z,7.699
2023-05-29T05:51:25.780Z,8.300
2023-05-29T05:53:25.704Z,8
2023-05-29T05:54:26.083Z,10.39
2023-05-29T05:55:25.971Z,8.100
2023-05-29T05:56:25.366Z,7.5
2023-05-29T05:57:25.600Z,7.199
2023-05-29T05:58:26.000Z,8.199
2023-05-29T05:59:25.671Z,8
2023-05-29T06:00:27.084Z,9.899
2023-05-29T06:01:25.274Z,8.699
2023-05-29T06:02:26.124Z,9
2023-05-29T06:03:26.130Z,7.5
2023-05-29T06:04:26.179Z,10.10
2023-05-29T06:05:26.284Z,9.899
2023-05-29T06:06:25.638Z,9.5
2023-05-29T06:07:25.752Z,7.900
2023-05-29T06:08:25.185Z,9.300
2023-05-29T06:09:25.251Z,7.199
2023-05-29T06:10:25.373Z,7.599
2023-05-29T06:11:25.650Z,9.199
2023-05-29T06:12:26.323Z,8.399
2023-05-29T06:13:25.891Z,7.300
2023-05-29T06:14:25.455Z,7.699
2023-05-29T06:15:26.562Z,8.199
2023-05-29T06:17:25.812Z,6.400
2023-05-29T06:18:25.294Z,9
2023-05-29T06:19:25.604Z,9.100
2023-05-29T06:20:26.326Z,9.5
2023-05-29T06:21:25.914Z,8.699
2023-05-29T06:22:25.871Z,8.899
2023-05-29T06:23:25.563Z,7.400
2023-05-29T06:24:26.322Z,7.300
2023-05-29T06:25:25.976Z,9.800
2023-05-29T06:26:25.759Z,10.30
2023-05-29T06:27:25.847Z,9.300
2023-05-29T06:28:25.747Z,10.19
2023-05-29T06:29:25.740Z,10.89
2023-05-29T06:30:25.931Z,10.5
2023-05-29T06:31:26.304Z,8.699
2023-05-29T06:32:26.314Z,9
2023-05-29T06:33:25.927Z,8.300
2023-05-29T06:34:25.636Z,8.800
2023-05-29T06:35:25.580Z,9.199
2023-05-29T06:36:26.463Z,9.800
2023-05-29T06:37:26.243Z,9.300
2023-05-29T06:38:25.866Z,9.899
2023-05-29T06:39:25.418Z,9.5
2023-05-29T06:40:26.005Z,11.39
2023-05-29T06:41:25.446Z,10.39
2023-05-29T06:42:26.132Z,9.800
2023-05-29T06:43:25.853Z,7.800
2023-05-29T06:44:25.639Z,11.39
2023-05-29T06:45:26.590Z,11.30
2023-05-29T06:46:26.163Z,8.5
2023-05-29T06:47:25.748Z,9.600
2023-05-29T06:48:25.417Z,9.399
2023-05-29T06:49:26.019Z,8.600
2023-05-29T06:50:25.694Z,9.300
2023-05-29T06:51:25.473Z,10.80
2023-05-29T06:53:25.681Z,9.800
2023-05-29T06:54:25.841Z,9.600
2023-05-29T06:55:25.991Z,9.300
2023-05-29T06:56:25.369Z,9.600
2023-05-29T06:57:26.426Z,10.39
2023-05-29T06:58:25.908Z,9.100
2023-05-29T06:59:25.522Z,9.899
2023-05-29T07:00:27.255Z,9.699
2023-05-29T07:01:26.380Z,8.300
2023-05-29T07:02:26.268Z,8.100
2023-05-29T07:03:26.092Z,10.89
2023-05-29T07:04:25.486Z,10.19
2023-05-29T07:05:26.212Z,10.30
2023-05-29T07:06:25.794Z,12.39
2023-05-29T07:07:25.711Z,9.199
2023-05-29T07:08:25.536Z,11.69
2023-05-29T07:09:25.734Z,8.300
2023-05-29T07:10:25.598Z,9.800
2023-05-29T07:11:25.250Z,10.89
2023-05-29T07:12:26.014Z,8.600
2023-05-29T07:13:25.670Z,8.5
2023-05-29T07:14:25.929Z,10
2023-05-29T07:15:26.183Z,9.300
2023-05-29T07:16:26.126Z,6.800
2023-05-29T07:17:26.182Z,10.5
2023-05-29T07:18:26.083Z,11.60
2023-05-29T07:19:25.612Z,8.699
2023-05-29T07:20:25.819Z,9.199
2023-05-29T07:21:25.683Z,8.5
2023-05-29T07:22:25.822Z,11.5
2023-05-29T07:23:26.623Z,10.39
2023-05-29T07:24:25.966Z,9.800
2023-05-29T07:25:25.652Z,9.899
2023-05-29T07:26:25.577Z,10.19
2023-05-29T07:27:25.497Z,10.69
2023-05-29T07:28:26.242Z,10.10
2023-05-29T07:29:25.970Z,8.600
2023-05-29T07:30:26.110Z,10
2023-05-29T07:31:25.727Z,11.19
2023-05-29T07:32:25.507Z,8.899
2023-05-29T07:33:26.077Z,8.699
2023-05-29T07:34:25.513Z,9.300
2023-05-29T07:35:26.461Z,10.89
2023-05-29T07:36:25.525Z,8.800
2023-05-29T07:37:26.490Z,7.699
2023-05-29T07:38:25.653Z,8.600
2023-05-29T07:39:25.646Z,14.89
2023-05-29T07:40:25.553Z,10.10
2023-05-29T07:41:26.652Z,10.5
2023-05-29T07:42:25.531Z,12.60
2023-05-29T07:43:26.193Z,11.10
2023-05-29T07:44:25.706Z,9.300
2023-05-29T07:45:25.779Z,9.699
2023-05-29T07:46:26.031Z,13.10
2023-05-29T07:47:26.232Z,10.89
2023-05-29T07:48:25.729Z,10.10
2023-05-29T07:49:25.526Z,8.600
2023-05-29T07:50:26.356Z,11.30
2023-05-29T07:51:26.286Z,9.699
2023-05-29T07:52:26.037Z,9.5
2023-05-29T07:53:26.279Z,10.69
2023-05-29T07:54:26.039Z,9.699
2023-05-29T07:55:26.089Z,10
2023-05-29T07:57:25.997Z,9.699
2023-05-29T07:58:25.993Z,11.39
2023-05-29T07:59:26.520Z,9.5
2023-05-29T08:00:26.582Z,9.899
2023-05-29T08:01:25.892Z,10.39
2023-05-29T08:02:26.134Z,11.30
2023-05-29T08:03:26.374Z,9.600
2023-05-29T08:04:26.165Z,10.80
2023-05-29T08:05:26.166Z,8.800
2023-05-29T08:06:27.337Z,11.19
2023-05-29T08:07:25.529Z,7.900
2023-05-29T08:08:25.241Z,11.5
2023-05-29T08:09:25.721Z,12.69
2023-05-29T08:10:25.903Z,9.899
2023-05-29T08:11:25.610Z,10.89
2023-05-29T08:12:26.279Z,8.600
2023-05-29T08:13:25.774Z,10.69
2023-05-29T08:14:25.789Z,12.19
2023-05-29T08:15:26.193Z,11
2023-05-29T08:16:26.188Z,9
2023-05-29T08:17:25.864Z,10.39
2023-05-29T08:18:25.450Z,11.5
2023-05-29T08:19:25.975Z,11.10
2023-05-29T08:20:25.904Z,9.899
2023-05-29T08:21:25.805Z,10.30
2023-05-29T08:22:25.588Z,10.69
2023-05-29T08:23:25.406Z,9.399
2023-05-29T08:24:26.086Z,11.19
2023-05-29T08:25:25.723Z,10.69
2023-05-29T08:26:25.702Z,9.399
2023-05-29T08:27:25.678Z,11
2023-05-29T08:28:25.717Z,10.60
2023-05-29T08:29:25.384Z,10.89
2023-05-29T08:30:25.759Z,11.89
2023-05-29T08:31:25.419Z,11.30
2023-05-29T08:32:26.207Z,11.60
2023-05-29T08:33:25.828Z,11.89
2023-05-29T08:34:25.620Z,13.30
2023-05-29T08:35:25.935Z,12.19
2023-05-29T08:36:25.734Z,12.30
2023-05-29T08:37:25.636Z,9.199
2023-05-29T08:38:25.097Z,11.19
2023-05-29T08:39:25.826Z,9.399
2023-05-29T08:40:25.840Z,11.39
2023-05-29T08:41:25.616Z,10.30
2023-05-29T08:42:26.492Z,9
2023-05-29T08:43:26.241Z,10.39
2023-05-29T08:44:25.800Z,10.5
2023-05-29T08:45:25.703Z,10.10
2023-05-29T08:46:25.446Z,9.800
2023-05-29T08:47:26.296Z,10.69
2023-05-29T08:48:25.556Z,10.30
2023-05-29T08:49:26.201Z,9.399
2023-05-29T08:50:25.737Z,10.5
2023-05-29T08:51:26.097Z,11
2023-05-29T08:52:25.877Z,10.5
2023-05-29T08:53:25.679Z,10.69
2023-05-29T08:54:25.716Z,10.80
2023-05-29T08:55:25.765Z,12.89
2023-05-29T08:56:34.335Z,10.39
2023-05-29T08:57:25.941Z,9
2023-05-29T08:58:25.464Z,9.300
2023-05-29T08:59:26.260Z,9.800
2023-05-29T09:00:26.927Z,9.699
2023-05-29T09:01:25.714Z,10.69
2023-05-29T09:02:25.576Z,11.39
2023-05-29T09:03:25.484Z,11.30
2023-05-29T09:04:26.299Z,10.30
2023-05-29T09:05:27.735Z,9.5
2023-05-29T09:06:25.965Z,10.19
2023-05-29T09:07:25.691Z,11.80
2023-05-29T09:08:25.896Z,11.5
2023-05-29T09:09:25.601Z,14.30
2023-05-29T09:10:25.758Z,9.300
2023-05-29T09:11:25.669Z,10.80
2023-05-29T09:12:25.657Z,9.300
2023-05-29T09:13:25.529Z,10.19
2023-05-29T09:14:26.556Z,14.10
2023-05-29T09:15:26.123Z,9.699
2023-05-29T09:16:25.727Z,9.100
2023-05-29T09:17:25.716Z,9.800
2023-05-29T09:18:25.823Z,9.199
2023-05-29T09:19:25.666Z,10.69
2023-05-29T09:20:25.710Z,10.89
2023-05-29T09:21:25.571Z,10.69
2023-05-29T09:22:26.531Z,10.10
2023-05-29T09:23:26.086Z,11.39
2023-05-29T09:24:25.610Z,11.89
2023-05-29T09:25:26.357Z,11.5
2023-05-29T09:26:25.886Z,12.60
2023-05-29T09:27:25.703Z,11.39
2023-05-29T09:28:25.447Z,11
2023-05-29T09:29:26.069Z,10.89
2023-05-29T09:30:26.023Z,12.19
2023-05-29T09:31:25.665Z,11
2023-05-29T09:32:25.648Z,11.89
2023-05-29T09:33:25.693Z,9.899
2023-05-29T09:34:25.766Z,10.89
2023-05-29T09:35:26.244Z,10.10
2023-05-29T09:36:25.967Z,11.39
2023-05-29T09:37:25.663Z,11.5
2023-05-29T09:38:38.472Z,12.69
2023-05-29T09:39:29.720Z,10.5
2023-05-29T09:40:26.485Z,9.899
2023-05-29T09:41:26.237Z,9.699
2023-05-29T09:42:26.544Z,11.30
2023-05-29T09:43:26.111Z,12.69
2023-05-29T09:44:25.614Z,12.60
2023-05-29T09:45:25.549Z,12.39
2023-05-29T09:46:26.212Z,11.30
2023-05-29T09:48:26.066Z,9.399
2023-05-29T09:49:25.930Z,10.89
2023-05-29T09:50:26.256Z,9.199
2023-05-29T09:51:27.357Z,10.19
2023-05-29T09:52:26.591Z,11
2023-05-29T09:53:26.788Z,10.60
2023-05-29T09:54:25.474Z,11.60
2023-05-29T09:55:26.642Z,8.800
2023-05-29T09:56:26.157Z,10.80
2023-05-29T09:57:25.805Z,8.300
2023-05-29T09:58:25.542Z,11.10
2023-05-29T09:59:25.778Z,10.39
2023-05-29T10:01:26.358Z,9.699
2023-05-29T10:02:25.397Z,9.899
2023-05-29T10:03:26.130Z,10.10
2023-05-29T10:04:25.783Z,9.699
2023-05-29T10:05:25.627Z,10.69
2023-05-29T10:06:25.444Z,11.80
2023-05-29T10:07:26.046Z,13.39
2023-05-29T10:08:25.520Z,11
2023-05-29T10:10:26.094Z,11.69
2023-05-29T10:11:26.224Z,8.800
2023-05-29T10:12:26.173Z,11.60
2023-05-29T10:13:25.913Z,11.69
2023-05-29T10:14:25.988Z,13
2023-05-29T10:15:26.291Z,12.10
2023-05-29T10:16:26.633Z,11.80
2023-05-29T10:17:25.731Z,12.10
2023-05-29T10:18:25.950Z,12.19
2023-05-29T10:19:26.325Z,11.89
2023-05-29T10:20:26.693Z,10.60
2023-05-29T10:21:25.618Z,10.10
2023-05-29T10:22:25.923Z,9.199
2023-05-29T10:23:25.722Z,10
2023-05-29T10:24:25.338Z,9
2023-05-29T10:25:26.094Z,8.300
2023-05-29T10:26:25.847Z,9.699
2023-05-29T10:27:25.679Z,10.89
2023-05-29T10:28:25.449Z,10.19
2023-05-29T10:29:26.178Z,11.10
2023-05-29T10:30:26.109Z,10.5
2023-05-29T10:31:25.633Z,9.899
2023-05-29T10:32:25.412Z,10.39
2023-05-29T10:33:25.938Z,10.89
2023-05-29T10:34:25.170Z,9.100
2023-05-29T10:35:25.937Z,9.800
2023-05-29T10:36:25.688Z,9.100
2023-05-29T10:37:25.928Z,9.899
2023-05-29T10:38:25.987Z,11.5
2023-05-29T10:39:25.542Z,10
2023-05-29T10:40:25.430Z,11.60
2023-05-29T10:41:25.922Z,9.699
2023-05-29T10:42:25.662Z,10.30
2023-05-29T10:43:25.626Z,9.899
2023-05-29T10:44:25.380Z,11.60
2023-05-29T10:45:26.032Z,8.699
2023-05-29T10:46:25.358Z,9.100
2023-05-29T10:47:25.971Z,11.69
2023-05-29T10:48:25.506Z,10.69
2023-05-29T10:49:25.420Z,8.800
2023-05-29T10:50:25.829Z,9.199
2023-05-29T10:51:25.156Z,10.10
2023-05-29T10:52:25.771Z,11.80
2023-05-29T10:53:25.862Z,10.80
2023-05-29T10:54:25.528Z,9.100
2023-05-29T10:55:26.221Z,10.5
2023-05-29T10:57:25.327Z,9.699
2023-05-29T10:58:25.697Z,10.60
2023-05-29T10:59:25.206Z,10.19
2023-05-29T11:00:26.643Z,12.39
2023-05-29T11:01:25.834Z,11.80
2023-05-29T11:02:25.849Z,9.600
2023-05-29T11:03:25.546Z,11.30
2023-05-29T11:04:25.823Z,11.80
2023-05-29T11:05:25.965Z,10.39
2023-05-29T11:06:25.570Z,11.60
2023-05-29T11:07:25.926Z,9.899
2023-05-29T11:08:25.671Z,10
2023-05-29T11:09:26.102Z,11.30
2023-05-29T11:10:25.544Z,12.10
2023-05-29T11:11:25.310Z,11.89
2023-05-29T11:12:25.842Z,9.5
2023-05-29T11:13:25.523Z,10.80
2023-05-29T11:14:25.968Z,11.69
2023-05-29T11:15:25.916Z,12.19
2023-05-29T11:16:25.538Z,12.5
2023-05-29T11:17:26.125Z,9.300
2023-05-29T11:18:25.717Z,11.39
2023-05-29T11:19:25.172Z,10.30
2023-05-29T11:20:25.397Z,9.399
2023-05-29T11:21:25.099Z,12.39
2023-05-29T11:22:25.682Z,10.10
2023-05-29T11:23:25.892Z,11.39
2023-05-29T11:24:25.435Z,11.5
2023-05-29T11:25:26.192Z,9
2023-05-29T11:26:25.481Z,11.19
2023-05-29T11:28:25.663Z,9.399
2023-05-29T11:29:25.994Z,11.39
2023-05-29T11:30:25.499Z,9.5
2023-05-29T11:31:26.110Z,11
2023-05-29T11:32:25.729Z,10.10
2023-05-29T11:33:25.190Z,10.30
2023-05-29T11:34:25.987Z,12.39
2023-05-29T11:35:25.800Z,11.39
2023-05-29T11:36:25.536Z,9.399
2023-05-29T11:37:25.235Z,14.89
2023-05-29T11:38:25.111Z,9
2023-05-29T11:39:25.319Z,10
2023-05-29T11:40:25.683Z,9.800
2023-05-29T11:41:25.431Z,11
2023-05-29T11:42:26.009Z,10.60
2023-05-29T11:43:25.355Z,13.5
2023-05-29T11:44:25.579Z,12.60
2023-05-29T11:45:25.283Z,8.699
2023-05-29T11:46:25.705Z,12.10
2023-05-29T11:47:25.887Z,12.19
2023-05-29T11:48:25.791Z,13.39
2023-05-29T11:49:25.424Z,10.89
2023-05-29T11:50:25.293Z,11.10
2023-05-29T11:51:25.843Z,9.699
2023-05-29T11:52:25.316Z,11.69
2023-05-29T11:53:26.001Z,10.39
2023-05-29T11:54:25.506Z,10.60
2023-05-29T11:55:25.465Z,10.89
2023-05-29T11:56:25.943Z,9.800
2023-05-29T11:57:25.470Z,9.699
2023-05-29T11:58:25.805Z,8.699
2023-05-29T11:59:25.304Z,9.899
2023-05-29T12:00:26.657Z,11.5
2023-05-29T12:01:26.138Z,8.600
2023-05-29T12:02:25.530Z,10.80
2023-05-29T12:03:25.564Z,9.600
2023-05-29T12:04:26.054Z,11
2023-05-29T12:05:25.815Z,10
2023-05-29T12:06:25.481Z,11.10
2023-05-29T12:07:25.911Z,10.80
2023-05-29T12:08:25.655Z,10.10
2023-05-29T12:09:25.426Z,10.89
2023-05-29T12:10:26.236Z,8.600
2023-05-29T12:11:25.813Z,9.699
2023-05-29T12:12:25.467Z,9.199
2023-05-29T12:13:26.034Z,10.69
2023-05-29T12:14:25.403Z,9.800
2023-05-29T12:16:25.515Z,9.199
2023-05-29T12:17:25.574Z,10.19
2023-05-29T12:18:25.407Z,11.5
2023-05-29T12:19:25.710Z,10.19
2023-05-29T12:20:25.477Z,10.80
2023-05-29T12:21:25.405Z,10.30
2023-05-29T12:22:25.805Z,10.39
2023-05-29T12:23:25.307Z,9.100
2023-05-29T12:25:26.127Z,10.69
2023-05-29T12:26:25.624Z,11.39
2023-05-29T12:27:25.403Z,9
2023-05-29T12:28:25.954Z,10.60
2023-05-29T12:29:25.751Z,8.399
2023-05-29T12:30:33.248Z,9.5
2023-05-29T12:31:25.358Z,9.699
2023-05-29T12:32:25.785Z,9.899
2023-05-29T12:33:25.235Z,10.80
2023-05-29T12:34:25.615Z,7.400
2023-05-29T12:35:26.152Z,10.10
2023-05-29T12:36:25.952Z,9.699
2023-05-29T12:37:25.517Z,10.19
2023-05-29T12:38:25.279Z,10.39
2023-05-29T12:39:25.762Z,10.19
2023-05-29T12:40:25.224Z,10.89
2023-05-29T12:41:25.808Z,10.10
2023-05-29T12:42:26.135Z,10.19
2023-05-29T12:43:25.585Z,11.10
2023-05-29T12:44:25.022Z,9.300
2023-05-29T12:45:25.829Z,11.69
2023-05-29T12:46:25.273Z,10.10
2023-05-29T12:47:26.129Z,10
2023-05-29T12:48:25.504Z,10.89
2023-05-29T12:49:25.804Z,9.199
2023-05-29T12:50:25.397Z,8.600
2023-05-29T12:51:26.015Z,9.5
2023-05-29T12:52:25.653Z,8.699
2023-05-29T12:53:25.138Z,11.89
2023-05-29T12:54:25.802Z,9.800
2023-05-29T12:55:25.892Z,10.5
2023-05-29T12:56:25.391Z,8.600
2023-05-29T12:57:25.618Z,8.699
2023-05-29T12:58:25.319Z,9.399
2023-05-29T12:59:25.797Z,9.5
2023-05-29T13:00:26.535Z,10.39
2023-05-29T13:01:25.857Z,11.19
2023-05-29T13:02:25.520Z,10.39
2023-05-29T13:03:25.269Z,10.10
2023-05-29T13:04:25.867Z,9.699
2023-05-29T13:05:25.654Z,10.69
2023-05-29T13:06:25.455Z,9.300
2023-05-29T13:07:25.795Z,10.5
2023-05-29T13:08:25.384Z,9.600
2023-05-29T13:09:25.551Z,8
2023-05-29T13:10:25.857Z,10.89
2023-05-29T13:11:25.711Z,8.699
2023-05-29T13:12:26.084Z,10.10
2023-05-29T13:13:25.457Z,9.699
2023-05-29T13:14:25.839Z,9.300
2023-05-29T13:15:25.474Z,9.699
2023-05-29T13:16:25.061Z,9.5
2023-05-29T13:17:25.564Z,11.89
2023-05-29T13:18:25.946Z,9.399
2023-05-29T13:19:25.222Z,9.600
2023-05-29T13:20:25.981Z,10.30
2023-05-29T13:21:25.445Z,9.399
2023-05-29T13:22:25.797Z,9.699
2023-05-29T13:23:27.072Z,8
2023-05-29T13:24:25.663Z,9.100
2023-05-29T13:25:25.465Z,7.800
2023-05-29T13:26:25.037Z,9.5
2023-05-29T13:28:26.135Z,11.10